Time;durP1;ratioP1;P1;durP2;ratioP2;P2;SDS_P1;SDS_P2;PMS_P1;PMS_P2;Temp;Humidity;BMP_temperature;BMP_pressure;BME280_temperature;BME280_humidity;BME280_pressure;Samples;Min_cycle;Max_cycle;Signal;HPM_P1;HPM_P2
2023/10/04 00:01:45;;;;;;;5.43;2.28;;;15.00;99.90;;;;;;4163242;28;20029;-72
2023/10/04 00:03:47;;;;;;;7.05;1.92;;;15.10;99.90;;;;;;4164052;28;20475;-73
2023/10/04 00:05:48;;;;;;;5.28;2.15;;;15.00;99.90;;;;;;4163357;28;20497;-72
2023/10/04 00:07:50;;;;;;;6.30;2.08;;;15.00;99.90;;;;;;4162979;28;20032;-72
2023/10/04 00:09:51;;;;;;;6.55;2.10;;;15.10;99.90;;;;;;4130326;28;20045;-72
2023/10/04 00:11:52;;;;;;;5.28;2.10;;;15.00;99.90;;;;;;4162575;28;20033;-72
2023/10/04 00:13:53;;;;;;;5.50;1.85;;;15.00;99.90;;;;;;4163828;28;20037;-72
2023/10/04 00:15:53;;;;;;;4.45;1.40;;;15.00;99.90;;;;;;4162700;28;20029;-72
2023/10/04 00:17:55;;;;;;;4.80;1.95;;;15.10;99.90;;;;;;4162274;28;20474;-75
2023/10/04 00:19:55;;;;;;;4.03;2.03;;;15.00;99.90;;;;;;4163445;28;20510;-74
2023/10/04 00:21:57;;;;;;;7.18;2.33;;;15.00;99.90;;;;;;4145082;28;20037;-75
2023/10/04 00:24:00;;;;;;;5.35;2.08;;;15.00;99.90;;;;;;4163417;28;20030;-75
2023/10/04 00:26:00;;;;;;;6.40;2.15;;;15.00;99.90;;;;;;4162735;28;20045;-75
2023/10/04 00:28:02;;;;;;;6.93;2.25;;;15.00;99.90;;;;;;4163712;28;20035;-75
2023/10/04 00:30:05;;;;;;;5.80;2.05;;;14.90;99.90;;;;;;4163631;28;20036;-75
2023/10/04 00:32:06;;;;;;;6.32;1.98;;;15.00;99.90;;;;;;4163146;28;20040;-75
2023/10/04 00:34:08;;;;;;;4.22;1.90;;;14.90;99.90;;;;;;4163588;28;20042;-75
2023/10/04 00:36:13;;;;;;;7.97;2.20;;;14.90;99.90;;;;;;4162702;28;20402;-75
2023/10/04 00:38:15;;;;;;;5.50;2.00;;;14.90;99.90;;;;;;4145664;28;20117;-75
2023/10/04 00:40:23;;;;;;;3.87;1.73;;;14.90;99.90;;;;;;4145043;28;20494;-75
2023/10/04 00:42:24;;;;;;;3.78;2.05;;;14.90;99.90;;;;;;4163172;28;20296;-75
2023/10/04 00:44:24;;;;;;;7.00;1.92;;;14.80;99.90;;;;;;4145935;28;20548;-75
2023/10/04 00:46:25;;;;;;;3.88;1.73;;;14.80;99.90;;;;;;4144671;28;20041;-75
2023/10/04 00:48:31;;;;;;;11.07;2.42;;;14.80;99.90;;;;;;4145954;28;20505;-74
2023/10/04 00:50:32;;;;;;;9.27;2.22;;;14.80;99.90;;;;;;4162251;28;20064;-75
2023/10/04 00:52:33;;;;;;;5.43;1.98;;;14.80;99.90;;;;;;4163297;28;20060;-75
2023/10/04 00:54:34;;;;;;;5.05;2.05;;;14.70;99.90;;;;;;4163314;28;20038;-75
2023/10/04 00:56:38;;;;;;;5.70;1.95;;;14.70;99.90;;;;;;4162577;28;20381;-75
2023/10/04 00:58:39;;;;;;;6.28;2.20;;;14.70;99.90;;;;;;4162879;28;20080;-74
2023/10/04 01:00:41;;;;;;;6.63;2.15;;;14.70;99.90;;;;;;4162496;28;20030;-75
2023/10/04 01:02:42;;;;;;;5.18;2.00;;;14.70;99.90;;;;;;4162870;28;20045;-75
2023/10/04 01:04:44;;;;;;;5.80;1.98;;;14.70;99.90;;;;;;4162809;28;20080;-74
2023/10/04 01:06:45;;;;;;;8.27;2.47;;;14.80;99.90;;;;;;4162513;28;20056;-74
2023/10/04 01:08:47;;;;;;;8.68;2.17;;;14.70;99.90;;;;;;4163007;28;20049;-75
2023/10/04 01:10:49;;;;;;;9.43;2.22;;;14.70;99.90;;;;;;4144788;28;20030;-74
2023/10/04 01:12:51;;;;;;;4.07;1.52;;;14.70;99.90;;;;;;4137215;28;20044;-75
2023/10/04 01:14:53;;;;;;;4.80;1.90;;;14.70;99.90;;;;;;4162224;28;20473;-75
2023/10/04 01:16:54;;;;;;;2.92;1.50;;;14.80;99.90;;;;;;4144012;28;20831;-74
2023/10/04 01:18:55;;;;;;;4.72;1.73;;;14.80;99.90;;;;;;4162451;28;20032;-74
2023/10/04 01:20:56;;;;;;;5.70;1.50;;;14.70;99.90;;;;;;4161793;28;20478;-75
2023/10/04 01:23:00;;;;;;;5.78;1.95;;;14.70;99.90;;;;;;4160307;28;20022;-75
2023/10/04 01:25:01;;;;;;;4.43;1.98;;;14.80;99.90;;;;;;4151820;28;20133;-74
2023/10/04 01:27:02;;;;;;;4.60;1.80;;;14.80;99.90;;;;;;4150435;28;20041;-74
2023/10/04 01:29:08;;;;;;;4.68;1.77;;;14.70;99.90;;;;;;4150675;28;20108;-70
2023/10/04 01:31:09;;;;;;;5.07;1.80;;;14.80;99.90;;;;;;4118562;28;20081;-70
2023/10/04 01:33:15;;;;;;;4.93;2.08;;;14.80;99.90;;;;;;4150597;28;20105;-70
2023/10/04 01:35:23;;;;;;;3.30;1.63;;;14.80;99.90;;;;;;4156044;28;20073;-70
2023/10/04 01:37:23;;;;;;;4.40;1.73;;;14.80;99.90;;;;;;4151103;28;20480;-71
2023/10/04 01:39:30;;;;;;;6.70;2.55;;;14.80;99.90;;;;;;4156235;28;20097;-71
2023/10/04 01:41:30;;;;;;;5.85;1.80;;;14.70;99.90;;;;;;4118525;28;20122;-71
2023/10/04 01:43:31;;;;;;;11.13;2.38;;;14.70;99.90;;;;;;4113540;28;20484;-70
2023/10/04 01:45:32;;;;;;;6.65;2.10;;;14.80;99.90;;;;;;4135403;28;20030;-70
2023/10/04 01:47:32;;;;;;;6.68;2.13;;;14.70;99.90;;;;;;4134858;28;20405;-70
2023/10/04 01:49:33;;;;;;;3.63;1.75;;;14.70;99.90;;;;;;4131528;28;20058;-70
2023/10/04 01:51:34;;;;;;;9.05;2.53;;;14.60;99.90;;;;;;4128865;28;20030;-70
2023/10/04 01:53:35;;;;;;;6.63;1.95;;;14.60;99.90;;;;;;4131001;28;20065;-70
2023/10/04 01:55:36;;;;;;;7.93;2.55;;;14.60;99.90;;;;;;4116782;28;20038;-70
2023/10/04 01:57:38;;;;;;;6.13;2.30;;;14.60;99.90;;;;;;4113070;28;20484;-70
2023/10/04 01:59:39;;;;;;;7.97;2.40;;;14.60;99.90;;;;;;4135598;28;20434;-70
2023/10/04 02:01:40;;;;;;;7.70;2.38;;;14.60;99.90;;;;;;4130581;28;20034;-70
2023/10/04 02:03:41;;;;;;;3.88;1.60;;;14.60;99.90;;;;;;4139222;28;20117;-70
2023/10/04 02:05:41;;;;;;;6.15;2.08;;;14.50;99.90;;;;;;4116369;28;20570;-71
2023/10/04 02:07:44;;;;;;;9.80;2.55;;;14.60;99.90;;;;;;4140369;28;20042;-71
2023/10/04 02:09:44;;;;;;;4.45;1.90;;;14.50;99.90;;;;;;4121500;28;20114;-71
2023/10/04 02:11:45;;;;;;;6.70;2.30;;;14.50;99.90;;;;;;4131452;28;20607;-71
2023/10/04 02:13:45;;;;;;;5.88;1.75;;;14.50;99.90;;;;;;4132258;28;20483;-71
2023/10/04 02:15:51;;;;;;;6.57;2.35;;;14.40;99.90;;;;;;4133089;28;20039;-70
2023/10/04 02:17:53;;;;;;;4.22;1.85;;;14.40;99.90;;;;;;4140455;28;20030;-71
2023/10/04 02:19:54;;;;;;;7.20;2.25;;;14.50;99.90;;;;;;4151094;28;20042;-70
2023/10/04 02:21:54;;;;;;;7.47;2.13;;;14.50;99.90;;;;;;4152609;28;20044;-71
2023/10/04 02:23:55;;;;;;;8.82;2.90;;;14.50;99.90;;;;;;4141093;28;20092;-71
2023/10/04 02:25:56;;;;;;;7.95;2.17;;;14.50;99.90;;;;;;4153846;28;20034;-70
2023/10/04 02:28:03;;;;;;;7.32;1.98;;;14.50;99.90;;;;;;4137088;28;20073;-71
2023/10/04 02:30:13;;;;;;;5.18;1.73;;;14.50;99.90;;;;;;4161233;28;20544;-71
2023/10/04 02:32:14;;;;;;;4.55;1.85;;;14.50;99.90;;;;;;4138682;28;20034;-71
2023/10/04 02:34:19;;;;;;;4.55;1.92;;;14.50;99.90;;;;;;4162122;28;20033;-71
2023/10/04 02:36:19;;;;;;;7.53;1.98;;;14.50;99.90;;;;;;4158462;28;20037;-70
2023/10/04 02:38:23;;;;;;;8.65;2.53;;;14.50;99.90;;;;;;4152037;28;20040;-71
2023/10/04 02:40:27;;;;;;;5.13;1.65;;;14.50;99.90;;;;;;4150893;28;20483;-70
2023/10/04 02:42:28;;;;;;;3.13;1.48;;;14.50;99.90;;;;;;4154867;28;20060;-71
2023/10/04 02:44:29;;;;;;;6.90;2.22;;;14.50;99.90;;;;;;4152547;28;20034;-71
2023/10/04 02:46:30;;;;;;;7.57;2.25;;;14.50;99.90;;;;;;4150903;28;20037;-70
2023/10/04 02:48:32;;;;;;;8.18;2.28;;;14.50;99.90;;;;;;4135749;28;20046;-71
2023/10/04 02:50:32;;;;;;;7.05;2.08;;;14.60;99.90;;;;;;4154945;28;20062;-71
2023/10/04 02:52:33;;;;;;;5.45;1.73;;;14.50;99.90;;;;;;4137640;28;20033;-71
2023/10/04 02:54:36;;;;;;;8.43;2.10;;;14.50;99.90;;;;;;4137903;28;20507;-70
2023/10/04 02:56:45;;;;;;;5.60;2.10;;;14.50;99.90;;;;;;4156463;28;20030;-71
2023/10/04 02:58:47;;;;;;;7.68;2.38;;;14.50;99.90;;;;;;4133953;28;20040;-71
2023/10/04 03:00:50;;;;;;;3.40;1.63;;;14.50;99.90;;;;;;4157537;28;20042;-70
2023/10/04 03:02:52;;;;;;;8.38;2.22;;;14.60;99.90;;;;;;4148091;28;20155;-71
2023/10/04 03:04:53;;;;;;;4.15;1.48;;;14.60;99.90;;;;;;4139359;28;20092;-70
2023/10/04 03:06:54;;;;;;;8.05;2.63;;;14.60;99.90;;;;;;4151447;28;20120;-70
2023/10/04 03:08:56;;;;;;;7.60;2.40;;;14.60;99.90;;;;;;4138802;28;20037;-71
2023/10/04 03:10:56;;;;;;;5.88;2.10;;;14.60;99.90;;;;;;4137303;28;20031;-71
2023/10/04 03:12:59;;;;;;;4.60;1.70;;;14.60;99.90;;;;;;4150858;28;20029;-70
2023/10/04 03:14:59;;;;;;;;;;;14.60;99.90;;;;;;4157399;28;20051;-70
2023/10/04 03:17:08;;;;;;;7.30;2.10;;;14.60;99.90;;;;;;4150286;28;19909;-71
2023/10/04 03:19:12;;;;;;;12.85;2.33;;;14.60;99.90;;;;;;4153105;28;20033;-70
2023/10/04 03:21:20;;;;;;;4.32;1.85;;;14.50;99.90;;;;;;4152675;28;20025;-71
2023/10/04 03:23:23;;;;;;;3.88;1.73;;;14.50;99.90;;;;;;4160957;28;20128;-71
2023/10/04 03:25:24;;;;;;;2.50;1.13;;;14.50;99.90;;;;;;4155257;28;20561;-70
2023/10/04 03:27:26;;;;;;;7.30;2.35;;;14.60;99.90;;;;;;4131661;28;20121;-71
2023/10/04 03:29:28;;;;;;;4.70;2.10;;;14.60;99.90;;;;;;4137277;28;20037;-71
2023/10/04 03:31:29;;;;;;;5.95;2.28;;;14.60;99.90;;;;;;4153018;28;20050;-71
2023/10/04 03:33:31;;;;;;;7.85;2.30;;;14.60;99.90;;;;;;4153845;28;20041;-71
2023/10/04 03:35:36;;;;;;;7.03;2.08;;;14.60;99.90;;;;;;4156792;28;20108;-71
2023/10/04 03:37:39;;;;;;;6.93;2.20;;;14.60;99.90;;;;;;4154716;28;20030;-70
2023/10/04 03:39:39;;;;;;;;;;;14.60;99.90;;;;;;4152531;28;20036;-70
2023/10/04 03:41:42;;;;;;;4.30;2.08;;;14.60;99.90;;;;;;4156232;28;19909;-70
2023/10/04 03:43:42;;;;;;;7.72;2.15;;;14.60;99.90;;;;;;4155621;28;20022;-70
2023/10/04 03:45:43;;;;;;;5.63;1.98;;;14.60;99.90;;;;;;4131886;28;20037;-72
2023/10/04 03:47:50;;;;;;;4.43;1.92;;;14.60;99.90;;;;;;4153481;28;20052;-70
2023/10/04 03:49:50;;;;;;;5.25;1.88;;;14.60;99.90;;;;;;4151566;28;20022;-75
2023/10/04 03:51:52;;;;;;;8.80;2.03;;;14.60;99.90;;;;;;4152943;28;20033;-75
2023/10/04 03:53:53;;;;;;;5.72;2.13;;;14.50;99.90;;;;;;4157572;28;20022;-75
2023/10/04 03:55:54;;;;;;;5.75;2.35;;;14.60;99.90;;;;;;4139940;28;20463;-76
2023/10/04 03:57:55;;;;;;;8.93;2.25;;;14.50;99.90;;;;;;4152035;28;20033;-75
2023/10/04 03:59:58;;;;;;;6.75;1.90;;;14.50;99.90;;;;;;4127928;28;20038;-75
2023/10/04 04:01:59;;;;;;;6.72;2.40;;;14.50;99.90;;;;;;4154881;28;20082;-74
2023/10/04 04:04:03;;;;;;;7.53;2.17;;;14.60;99.90;;;;;;4133773;28;20507;-74
2023/10/04 04:06:07;;;;;;;7.22;2.33;;;14.60;99.90;;;;;;4135024;28;20506;-74
2023/10/04 04:08:09;;;;;;;7.25;2.15;;;14.50;99.90;;;;;;4150397;28;20036;-75
2023/10/04 04:10:14;;;;;;;5.50;2.25;;;14.50;99.90;;;;;;4151361;28;20038;-75
2023/10/04 04:12:16;;;;;;;6.47;1.98;;;14.50;99.90;;;;;;4140909;28;20034;-74
2023/10/04 04:14:20;;;;;;;6.72;2.10;;;14.50;99.90;;;;;;4137670;28;20042;-75
2023/10/04 04:16:20;;;;;;;5.00;1.92;;;14.50;99.90;;;;;;4145734;28;20041;-75
2023/10/04 04:18:21;;;;;;;7.28;1.88;;;14.50;99.90;;;;;;4154007;28;20034;-74
2023/10/04 04:20:23;;;;;;;7.68;2.33;;;14.50;99.90;;;;;;4133644;28;20058;-75
2023/10/04 04:22:24;;;;;;;8.63;2.55;;;14.50;99.90;;;;;;4157692;28;20033;-75
2023/10/04 04:24:27;;;;;;;4.93;2.03;;;14.40;99.90;;;;;;4155744;28;20566;-75
2023/10/04 04:26:28;;;;;;;5.28;1.98;;;14.50;99.90;;;;;;4154919;28;20042;-75
2023/10/04 04:28:30;;;;;;;6.65;2.05;;;14.40;99.90;;;;;;4150235;28;20042;-74
2023/10/04 04:30:35;;;;;;;5.35;1.75;;;14.40;99.90;;;;;;4151779;28;20126;-74
2023/10/04 04:32:36;;;;;;;4.65;1.58;;;14.40;99.90;;;;;;4153369;28;20389;-75
2023/10/04 04:34:41;;;;;;;6.82;2.15;;;14.40;99.90;;;;;;4135696;28;20026;-76
2023/10/04 04:36:42;;;;;;;6.80;2.00;;;14.30;99.90;;;;;;4159115;28;20071;-75
2023/10/04 04:38:42;;;;;;;10.48;2.15;;;14.30;99.90;;;;;;4135732;28;20391;-75
2023/10/04 04:40:48;;;;;;;6.05;1.80;;;14.30;99.90;;;;;;4151283;28;20041;-75
2023/10/04 04:42:48;;;;;;;4.25;1.73;;;14.40;99.90;;;;;;4153532;28;20087;-74
2023/10/04 04:44:50;;;;;;;7.38;2.28;;;14.40;99.90;;;;;;4162026;28;20097;-75
2023/10/04 04:46:51;;;;;;;5.28;2.08;;;14.40;99.90;;;;;;4155896;28;20478;-74
2023/10/04 04:48:55;;;;;;;6.72;2.17;;;14.30;99.90;;;;;;4133421;28;20030;-74
2023/10/04 04:50:58;;;;;;;3.92;1.67;;;14.30;99.90;;;;;;4159209;28;20030;-75
2023/10/04 04:53:00;;;;;;;3.90;1.52;;;14.40;99.90;;;;;;4145489;28;20030;-75
2023/10/04 04:55:02;;;;;;;5.38;2.20;;;14.30;99.90;;;;;;4135363;28;20168;-75
2023/10/04 04:57:05;;;;;;;5.33;1.97;;;14.30;99.90;;;;;;4151198;28;20491;-74
2023/10/04 04:59:08;;;;;;;8.18;2.28;;;14.30;99.90;;;;;;4155258;28;20040;-71
2023/10/04 05:01:11;;;;;;;7.13;2.03;;;14.30;99.90;;;;;;4133421;28;20388;-70
2023/10/04 05:03:11;;;;;;;4.53;1.67;;;14.30;99.90;;;;;;4149640;28;20080;-71
2023/10/04 05:05:12;;;;;;;8.15;2.13;;;14.20;99.90;;;;;;4134257;28;20038;-71
2023/10/04 05:07:13;;;;;;;6.90;2.22;;;14.20;99.90;;;;;;4156156;28;20026;-71
2023/10/04 05:09:14;;;;;;;8.20;1.98;;;14.30;99.90;;;;;;4150580;28;20083;-70
2023/10/04 05:11:14;;;;;;;10.57;2.25;;;14.20;99.90;;;;;;4135273;28;20092;-71
2023/10/04 05:13:18;;;;;;;9.23;2.35;;;14.20;99.90;;;;;;4152724;28;20100;-71
2023/10/04 05:15:38;;;;;;;9.32;2.15;;;14.20;99.90;;;;;;4160148;28;20034;-70
2023/10/04 05:17:39;;;;;;;5.35;1.90;;;14.10;99.90;;;;;;4134506;28;20099;-71
2023/10/04 05:19:40;;;;;;;7.57;1.88;;;14.10;99.90;;;;;;4154793;28;20437;-70
2023/10/04 05:21:40;;;;;;;7.65;2.30;;;14.10;99.90;;;;;;4161757;28;20041;-67
2023/10/04 05:23:41;;;;;;;8.20;2.47;;;14.20;99.90;;;;;;4162982;28;20034;-68
2023/10/04 05:25:42;;;;;;;6.60;2.20;;;14.10;99.90;;;;;;4153905;28;20028;-67
2023/10/04 05:27:43;;;;;;;5.65;1.55;;;14.10;99.90;;;;;;4156784;28;20032;-67
2023/10/04 05:29:44;;;;;;;8.45;2.45;;;14.10;99.90;;;;;;4148479;28;20373;-67
2023/10/04 05:31:45;;;;;;;6.18;2.10;;;14.10;99.90;;;;;;4143465;28;20108;-68
2023/10/04 05:33:45;;;;;;;9.65;2.25;;;14.00;99.90;;;;;;4155149;28;20037;-68
2023/10/04 05:35:53;;;;;;;3.95;2.10;;;14.00;99.90;;;;;;4149521;28;20521;-68
2023/10/04 05:37:55;;;;;;;8.02;2.33;;;14.10;99.90;;;;;;4152029;28;20133;-67
2023/10/04 05:39:55;;;;;;;5.85;2.20;;;14.00;99.90;;;;;;4133559;28;20034;-67
2023/10/04 05:41:56;;;;;;;9.77;2.42;;;14.00;99.90;;;;;;4147643;28;20037;-67
2023/10/04 05:43:57;;;;;;;6.18;2.40;;;14.00;99.90;;;;;;4148550;28;20033;-67
2023/10/04 05:45:57;;;;;;;5.65;2.17;;;14.00;99.90;;;;;;4145936;28;20037;-67
2023/10/04 05:47:59;;;;;;;4.22;1.90;;;14.00;99.90;;;;;;4153153;28;20428;-70
2023/10/04 05:50:00;;;;;;;4.57;1.83;;;14.00;99.90;;;;;;4128088;28;20458;-67
2023/10/04 05:52:00;;;;;;;8.70;2.90;;;13.90;99.90;;;;;;4147110;28;20034;-68
2023/10/04 05:54:03;;;;;;;7.53;2.20;;;13.90;99.90;;;;;;4149347;28;20034;-67
2023/10/04 05:56:04;;;;;;;9.02;2.67;;;13.90;99.90;;;;;;4131999;28;20109;-67
2023/10/04 05:58:09;;;;;;;5.25;1.90;;;14.00;99.90;;;;;;4153397;28;20041;-67
2023/10/04 06:00:33;;;;;;;8.18;2.80;;;13.90;99.90;;;;;;4152321;28;20054;-68
2023/10/04 06:02:34;;;;;;;6.65;2.33;;;14.00;99.90;;;;;;4153241;28;20474;-67
2023/10/04 06:04:35;;;;;;;9.82;2.90;;;13.90;99.90;;;;;;4158663;28;20119;-67
2023/10/04 06:06:35;;;;;;;8.77;2.28;;;14.00;99.90;;;;;;4151330;28;20497;-67
2023/10/04 06:08:36;;;;;;;19.77;4.20;;;14.00;99.90;;;;;;4149334;28;20434;-67
2023/10/04 06:10:37;;;;;;;20.73;5.10;;;14.00;99.90;;;;;;4149545;28;20084;-67
2023/10/04 06:12:41;;;;;;;21.92;4.75;;;14.00;99.90;;;;;;4133594;28;20037;-67
2023/10/04 06:14:41;;;;;;;12.20;2.92;;;14.00;99.90;;;;;;4153285;28;20045;-67
2023/10/04 06:16:42;;;;;;;10.73;2.60;;;14.00;99.90;;;;;;4145686;28;20506;-67
2023/10/04 06:18:43;;;;;;;8.98;2.80;;;14.00;99.90;;;;;;4153692;28;20057;-67
2023/10/04 06:20:45;;;;;;;6.78;2.30;;;14.00;99.90;;;;;;4145977;28;20030;-67
2023/10/04 06:22:46;;;;;;;12.15;2.65;;;14.00;99.90;;;;;;4148520;28;20486;-68
2023/10/04 06:24:46;;;;;;;7.22;2.58;;;14.00;99.90;;;;;;4132745;28;20060;-68
2023/10/04 06:26:47;;;;;;;9.10;2.38;;;14.00;99.90;;;;;;4144816;28;20128;-68
2023/10/04 06:28:47;;;;;;;8.43;2.25;;;14.00;99.90;;;;;;4133637;28;20034;-67
2023/10/04 06:30:48;;;;;;;5.13;1.95;;;14.00;99.90;;;;;;4152753;28;20026;-67
2023/10/04 06:32:50;;;;;;;10.43;2.53;;;14.00;99.90;;;;;;4146868;28;20088;-69
2023/10/04 06:34:51;;;;;;;10.63;3.05;;;14.00;99.90;;;;;;4129576;28;20029;-67
2023/10/04 06:36:51;;;;;;;7.88;2.28;;;14.10;99.90;;;;;;4125090;28;20053;-67
2023/10/04 06:38:52;;;;;;;6.68;2.35;;;14.00;99.90;;;;;;4135564;28;20471;-68
2023/10/04 06:40:53;;;;;;;9.38;2.50;;;14.00;99.90;;;;;;4123272;28;20120;-68
2023/10/04 06:42:57;;;;;;;7.60;2.63;;;14.00;99.90;;;;;;4109606;28;20045;-67
2023/10/04 06:44:59;;;;;;;10.88;3.05;;;14.10;99.90;;;;;;4132016;28;20081;-67
2023/10/04 06:47:00;;;;;;;5.13;2.10;;;14.20;99.90;;;;;;4137299;28;20098;-68
2023/10/04 06:49:02;;;;;;;5.93;2.60;;;14.30;99.90;;;;;;4150107;28;20061;-68
2023/10/04 06:51:03;;;;;;;4.00;2.00;;;14.40;99.90;;;;;;4132914;28;20037;-70
2023/10/04 06:53:04;;;;;;;9.55;2.88;;;14.50;99.90;;;;;;4147735;28;20121;-69
2023/10/04 06:55:08;;;;;;;10.77;2.97;;;14.60;99.90;;;;;;4148733;28;20026;-68
2023/10/04 06:57:08;;;;;;;7.35;2.28;;;14.80;99.90;;;;;;4158765;28;20029;-68
2023/10/04 06:59:09;;;;;;;7.00;2.92;;;14.90;99.90;;;;;;4132208;28;20113;-68
2023/10/04 07:01:10;;;;;;;9.05;2.55;;;15.00;99.90;;;;;;4152355;28;20032;-66
2023/10/04 07:03:10;;;;;;;7.80;2.75;;;15.00;99.90;;;;;;4138398;28;20030;-67
2023/10/04 07:05:14;;;;;;;5.53;2.20;;;15.20;99.90;;;;;;4135241;28;20057;-68
2023/10/04 07:07:15;;;;;;;6.78;2.05;;;15.30;99.90;;;;;;4146220;28;20118;-68
2023/10/04 07:09:16;;;;;;;7.82;2.50;;;15.40;99.90;;;;;;4117526;28;20031;-70
2023/10/04 07:11:16;;;;;;;10.05;2.50;;;15.50;99.90;;;;;;4147022;28;20390;-68
2023/10/04 07:13:17;;;;;;;9.10;2.50;;;15.60;99.90;;;;;;4152524;28;20026;-68
2023/10/04 07:15:19;;;;;;;6.28;2.45;;;15.70;99.90;;;;;;4156632;28;20109;-68
2023/10/04 07:17:20;;;;;;;3.70;2.05;;;15.80;99.90;;;;;;4152330;28;20065;-67
2023/10/04 07:19:21;;;;;;;9.85;2.35;;;16.00;99.90;;;;;;4157449;28;20033;-68
2023/10/04 07:21:23;;;;;;;9.02;2.28;;;16.10;99.90;;;;;;4150769;28;20084;-67
2023/10/04 07:23:23;;;;;;;7.72;2.20;;;16.20;99.90;;;;;;4135788;28;20459;-67
2023/10/04 07:25:28;;;;;;;9.27;2.70;;;16.30;99.90;;;;;;4153510;28;20037;-67
2023/10/04 07:27:29;;;;;;;8.35;2.53;;;16.50;99.90;;;;;;4156292;28;20550;-67
2023/10/04 07:29:30;;;;;;;7.20;2.80;;;16.70;99.90;;;;;;4143275;28;20034;-66
2023/10/04 07:31:34;;;;;;;7.55;2.25;;;16.90;99.90;;;;;;4140321;28;20030;-66
2023/10/04 07:33:35;;;;;;;10.30;2.70;;;17.00;99.90;;;;;;4135024;28;20076;-69
2023/10/04 07:35:36;;;;;;;5.97;1.98;;;17.20;99.90;;;;;;4117965;28;20065;-67
2023/10/04 07:37:36;;;;;;;6.72;2.20;;;17.30;99.90;;;;;;4156415;28;20070;-66
2023/10/04 07:39:37;;;;;;;5.82;1.95;;;17.50;99.90;;;;;;4147052;28;20117;-67
2023/10/04 07:41:37;;;;;;;5.82;1.98;;;17.70;99.90;;;;;;4150238;28;20069;-67
2023/10/04 07:43:39;;;;;;;8.80;2.58;;;17.90;99.90;;;;;;4132972;28;20038;-67
2023/10/04 07:45:39;;;;;;;9.38;2.28;;;18.10;99.90;;;;;;4154991;28;20061;-67
2023/10/04 07:47:41;;;;;;;8.25;2.55;;;18.30;99.90;;;;;;4153894;28;20034;-67
2023/10/04 07:49:42;;;;;;;6.40;2.47;;;18.20;99.90;;;;;;4134659;28;20034;-66
2023/10/04 07:51:43;;;;;;;6.45;2.00;;;18.30;99.90;;;;;;4159753;28;20036;-67
2023/10/04 07:53:45;;;;;;;9.98;2.80;;;18.40;99.90;;;;;;4136386;28;20037;-66
2023/10/04 07:55:45;;;;;;;5.65;1.92;;;18.50;99.90;;;;;;4135693;28;20061;-66
2023/10/04 07:57:47;;;;;;;6.93;2.45;;;18.70;99.90;;;;;;4152247;28;20026;-66
2023/10/04 07:59:49;;;;;;;10.43;2.92;;;18.80;99.90;;;;;;4132824;28;20037;-66
2023/10/04 08:01:49;;;;;;;6.72;2.30;;;19.00;99.90;;;;;;4137504;28;20045;-66
2023/10/04 08:03:50;;;;;;;10.38;3.05;;;19.20;99.90;;;;;;4158722;28;20037;-66
2023/10/04 08:05:50;;;;;;;11.73;3.17;;;19.30;99.90;;;;;;4155738;28;20036;-66
2023/10/04 08:07:56;;;;;;;22.85;4.53;;;19.40;99.90;;;;;;4146173;28;20367;-66
2023/10/04 08:09:58;;;;;;;23.80;5.30;;;19.50;99.90;;;;;;4149966;28;20394;-66
2023/10/04 08:11:59;;;;;;;17.13;4.43;;;19.50;99.90;;;;;;4152289;28;20033;-66
2023/10/04 08:14:07;;;;;;;18.20;4.55;;;19.70;99.90;;;;;;4159485;28;20386;-66
2023/10/04 08:16:08;;;;;;;15.32;4.45;;;19.70;99.90;;;;;;4121674;28;20030;-66
2023/10/04 08:18:08;;;;;;;6.45;2.70;;;19.70;99.90;;;;;;4122854;28;20096;-67
2023/10/04 08:20:13;;;;;;;5.50;2.30;;;19.60;99.90;;;;;;4153805;28;20506;-68
2023/10/04 08:22:15;;;;;;;7.97;2.90;;;19.60;99.90;;;;;;4135906;28;20042;-66
2023/10/04 08:24:16;;;;;;;8.63;3.20;;;19.60;99.90;;;;;;4138996;28;20046;-66
2023/10/04 08:26:17;;;;;;;8.00;2.78;;;19.50;99.90;;;;;;4154063;28;20038;-68
2023/10/04 08:28:18;;;;;;;8.55;2.60;;;19.40;99.90;;;;;;4154102;28;20133;-67
2023/10/04 08:30:20;;;;;;;8.27;2.50;;;19.40;99.90;;;;;;4156342;28;20057;-67
2023/10/04 08:32:22;;;;;;;9.35;2.72;;;19.40;99.90;;;;;;4156170;28;20026;-67
2023/10/04 08:34:24;;;;;;;8.10;2.33;;;19.30;99.90;;;;;;4139570;28;20034;-66
2023/10/04 08:36:25;;;;;;;6.90;2.42;;;19.20;99.90;;;;;;4136264;28;20526;-67
2023/10/04 08:38:25;;;;;;;9.85;3.20;;;19.10;99.90;;;;;;4150918;28;20061;-67
2023/10/04 08:40:28;;;;;;;6.88;2.72;;;19.20;99.90;;;;;;4132256;28;20048;-66
2023/10/04 08:42:29;;;;;;;11.90;3.13;;;19.20;99.90;;;;;;4117794;28;20043;-66
2023/10/04 08:44:30;;;;;;;13.90;2.90;;;19.10;99.90;;;;;;4155797;28;20401;-66
2023/10/04 08:46:31;;;;;;;7.30;2.05;;;19.00;99.90;;;;;;4131539;28;20029;-66
2023/10/04 08:48:33;;;;;;;10.68;3.00;;;19.00;99.90;;;;;;4147088;28;20034;-66
2023/10/04 08:50:42;;;;;;;8.85;2.80;;;19.00;99.90;;;;;;4136176;28;20093;-66
2023/10/04 08:52:47;;;;;;;5.78;2.22;;;19.00;99.90;;;;;;4154948;28;20033;-66
2023/10/04 08:54:55;;;;;;;5.13;2.28;;;19.00;99.90;;;;;;4157914;28;20041;-66
2023/10/04 08:57:04;;;;;;;8.07;2.67;;;19.10;99.90;;;;;;4154309;28;20422;-66
2023/10/04 08:59:05;;;;;;;8.52;2.83;;;19.00;99.90;;;;;;4152230;28;20129;-66
2023/10/04 09:01:06;;;;;;;5.80;2.08;;;19.10;99.90;;;;;;4155718;28;20482;-66
2023/10/04 09:03:07;;;;;;;4.93;2.03;;;19.20;99.90;;;;;;4144964;28;20053;-67
2023/10/04 09:05:10;;;;;;;8.20;2.30;;;19.20;99.90;;;;;;4127271;28;20042;-67
2023/10/04 09:07:11;;;;;;;7.65;2.75;;;19.20;99.90;;;;;;4155154;28;20090;-66
2023/10/04 09:09:15;;;;;;;9.98;2.92;;;19.20;99.90;;;;;;4148151;28;20049;-66
2023/10/04 09:11:15;;;;;;;8.13;2.63;;;19.20;99.90;;;;;;4147088;28;20037;-66
2023/10/04 09:13:16;;;;;;;6.68;2.38;;;19.20;99.90;;;;;;4153047;28;20026;-66
2023/10/04 09:15:18;;;;;;;8.30;2.60;;;19.30;99.90;;;;;;4149972;28;20509;-66
2023/10/04 09:17:19;;;;;;;9.13;2.78;;;19.30;99.90;;;;;;4134779;28;20152;-66
2023/10/04 09:19:21;;;;;;;11.80;2.97;;;19.30;99.90;;;;;;4131740;28;20113;-66
2023/10/04 09:21:22;;;;;;;10.07;2.95;;;19.40;99.90;;;;;;4130685;28;20121;-65
2023/10/04 09:23:23;;;;;;;7.60;2.55;;;19.20;99.90;;;;;;4151055;28;20033;-66
2023/10/04 09:25:38;;;;;;;6.55;2.40;;;19.20;99.90;;;;;;4148255;28;20084;-66
2023/10/04 09:27:38;;;;;;;7.47;2.72;;;19.30;99.90;;;;;;4143053;28;20113;-66
2023/10/04 09:29:39;;;;;;;9.48;2.80;;;19.20;99.90;;;;;;4145521;28;20088;-67
2023/10/04 09:31:53;;;;;;;11.27;3.17;;;19.20;99.90;;;;;;4150599;28;20518;-66
2023/10/04 09:33:56;;;;;;;6.75;2.80;;;19.20;99.90;;;;;;4153336;28;20156;-66
2023/10/04 09:35:57;;;;;;;7.18;2.65;;;19.00;99.90;;;;;;4150166;28;20534;-66
2023/10/04 09:38:14;;;;;;;9.63;2.70;;;19.00;99.90;;;;;;4137146;28;20062;-69
2023/10/04 09:40:17;;;;;;;9.45;3.10;;;19.00;99.90;;;;;;4111512;28;20507;-69
2023/10/04 09:42:19;;;;;;;8.88;2.95;;;19.00;99.90;;;;;;4153331;28;20116;-69
2023/10/04 09:44:20;;;;;;;11.85;3.22;;;18.90;99.90;;;;;;4151979;28;20526;-69
2023/10/04 09:46:21;;;;;;;8.27;3.00;;;18.70;99.90;;;;;;4151146;28;20044;-68
2023/10/04 09:48:21;;;;;;;8.25;2.20;;;18.80;99.90;;;;;;4150428;28;20117;-68
2023/10/04 09:50:24;;;;;;;9.63;2.97;;;18.80;99.90;;;;;;4154618;28;20036;-68
2023/10/04 09:52:26;;;;;;;5.95;2.10;;;18.70;99.90;;;;;;4150634;28;20037;-68
2023/10/04 09:54:28;;;;;;;8.15;2.30;;;18.70;99.90;;;;;;4132930;28;20557;-68
2023/10/04 09:56:29;;;;;;;7.50;2.38;;;18.60;99.90;;;;;;4149932;28;20045;-68
2023/10/04 09:58:32;;;;;;;8.77;2.22;;;18.60;99.90;;;;;;4145447;28;20037;-68
2023/10/04 10:00:33;;;;;;;7.13;3.10;;;18.50;99.90;;;;;;4152972;28;20038;-68
2023/10/04 10:02:36;;;;;;;10.55;3.10;;;18.60;99.90;;;;;;4135080;28;20041;-68
2023/10/04 10:04:43;;;;;;;9.15;2.85;;;18.60;99.90;;;;;;4151541;28;20033;-68
2023/10/04 10:07:09;;;;;;;9.55;3.20;;;18.60;99.90;;;;;;4157789;28;20026;-68
2023/10/04 10:09:18;;;;;;;9.55;2.88;;;18.60;99.90;;;;;;4151028;28;20490;-68
2023/10/04 10:11:20;;;;;;;9.52;3.28;;;18.70;99.90;;;;;;4150155;28;20084;-69
2023/10/04 10:13:21;;;;;;;9.32;2.80;;;18.60;99.90;;;;;;4152420;28;20089;-68
2023/10/04 10:15:22;;;;;;;13.82;2.58;;;18.60;99.90;;;;;;4146053;28;20030;-68
2023/10/04 10:17:22;;;;;;;7.78;2.70;;;18.60;99.90;;;;;;4152257;28;20030;-68
2023/10/04 10:19:24;;;;;;;9.05;2.90;;;18.50;99.90;;;;;;4148941;28;20054;-68
2023/10/04 10:22:05;;;;;;;6.47;2.30;;;18.60;99.90;;;;;;4137291;28;20503;-68
2023/10/04 10:24:14;;;;;;;9.38;2.97;;;18.60;99.90;;;;;;4149855;28;20025;-68
2023/10/04 10:26:20;;;;;;;7.90;2.22;;;18.60;99.90;;;;;;4151441;28;20406;-68
2023/10/04 10:28:22;;;;;;;6.82;2.22;;;18.60;99.90;;;;;;4150769;28;20075;-68
2023/10/04 10:30:28;;;;;;;5.72;2.28;;;18.70;99.90;;;;;;4152051;28;20144;-68
2023/10/04 10:32:28;;;;;;;7.10;2.35;;;18.70;99.90;;;;;;4136942;28;20064;-68
2023/10/04 10:34:30;;;;;;;11.10;2.88;;;18.70;99.90;;;;;;4131980;28;20038;-68
2023/10/04 10:36:32;;;;;;;9.15;2.67;;;18.80;99.90;;;;;;4145976;28;20046;-68